Time;durP1;ratioP1;P1;durP2;ratioP2;P2;SDS_P1;SDS_P2;PMS_P1;PMS_P2;Temp;Humidity;BMP_temperature;BMP_pressure;BME280_temperature;BME280_humidity;BME280_pressure;Samples;Min_cycle;Max_cycle;Signal;HPM_P1;HPM_P2
2022/07/23 00:00:16;;;;;;;8.90;7.33;;;;;;;;;;5095062;28;20547;-65
2022/07/23 00:02:43;;;;;;;18.60;6.80;;;;;;;;;;5095130;28;20478;-65
2022/07/23 00:05:11;;;;;;;8.90;7.23;;;;;;;;;;5094856;28;20443;-65
2022/07/23 00:07:40;;;;;;;12.17;7.27;;;;;;;;;;5094569;28;20449;-65
2022/07/23 00:10:07;;;;;;;10.27;7.37;;;;;;;;;;5094953;28;20485;-65
2022/07/23 00:12:34;;;;;;;10.33;8.27;;;;;;;;;;5094802;28;20519;-65
2022/07/23 00:15:02;;;;;;;8.37;7.53;;;;;;;;;;5094728;28;20541;-64
2022/07/23 00:17:29;;;;;;;10.13;8.17;;;;;;;;;;5094201;28;20571;-64
2022/07/23 00:19:56;;;;;;;13.90;8.90;;;;;;;;;;5094603;28;20806;-65
2022/07/23 00:22:23;;;;;;;12.03;9.50;;;;;;;;;;5094479;28;20437;-65
2022/07/23 00:24:52;;;;;;;11.37;8.53;;;;;;;;;;5094963;28;20556;-65
2022/07/23 00:27:19;;;;;;;12.00;8.70;;;;;;;;;;5094120;28;21009;-65
2022/07/23 00:29:46;;;;;;;14.90;9.80;;;;;;;;;;5094651;28;20480;-65
2022/07/23 00:32:14;;;;;;;13.60;9.53;;;;;;;;;;5094059;28;20449;-65
2022/07/23 00:34:41;;;;;;;15.73;9.70;;;;;;;;;;5094381;28;20523;-65
2022/07/23 00:37:08;;;;;;;15.10;10.77;;;;;;;;;;5094442;28;20447;-65
2022/07/23 00:39:35;;;;;;;16.20;11.33;;;;;;;;;;5094890;28;20529;-65
2022/07/23 00:42:04;;;;;;;17.53;10.83;;;;;;;;;;5093880;28;20974;-66
2022/07/23 00:44:31;;;;;;;14.07;12.57;;;;;;;;;;5094272;28;20532;-66
2022/07/23 00:46:59;;;;;;;15.07;11.73;;;;;;;;;;5094068;28;20452;-66
2022/07/23 00:49:27;;;;;;;16.83;11.17;;;;;;;;;;5093742;28;20566;-66
2022/07/23 00:51:55;;;;;;;15.43;11.93;;;;;;;;;;5094044;28;20436;-65
2022/07/23 00:54:23;;;;;;;17.17;12.80;;;;;;;;;;5094184;28;20468;-65
2022/07/23 00:56:50;;;;;;;13.80;11.20;;;;;;;;;;5093565;28;20452;-65
2022/07/23 00:59:19;;;;;;;14.73;11.30;;;;;;;;;;5093914;28;20519;-66
2022/07/23 01:01:48;;;;;;;14.37;10.20;;;;;;;;;;5094402;28;20471;-65
2022/07/23 01:04:16;;;;;;;13.07;10.60;;;;;;;;;;5093123;28;20655;-65
2022/07/23 01:06:44;;;;;;;17.73;10.70;;;;;;;;;;5093711;28;20921;-65
2022/07/23 01:09:12;;;;;;;17.03;12.20;;;;;;;;;;5093410;28;20962;-66
2022/07/23 01:11:39;;;;;;;14.10;11.90;;;;;;;;;;5093413;28;20536;-65
2022/07/23 01:14:10;;;;;;;15.60;12.93;;;;;;;;;;5093461;28;20526;-65
2022/07/23 01:16:39;;;;;;;13.67;11.57;;;;;;;;;;5094027;28;20509;-66
2022/07/23 01:19:06;;;;;;;15.70;12.50;;;;;;;;;;5093902;28;20888;-65
2022/07/23 01:21:35;;;;;;;17.43;12.33;;;;;;;;;;5093261;28;20945;-65
2022/07/23 01:24:03;;;;;;;14.60;13.13;;;;;;;;;;5093486;28;21006;-65
2022/07/23 01:26:31;;;;;;;14.13;12.60;;;;;;;;;;5093555;28;20484;-65
2022/07/23 01:28:58;;;;;;;15.00;12.27;;;;;;;;;;5093722;28;20443;-65
2022/07/23 01:31:25;;;;;;;12.77;11.47;;;;;;;;;;5093409;28;20558;-66
2022/07/23 01:33:53;;;;;;;15.07;12.03;;;;;;;;;;5093258;28;20536;-65
2022/07/23 01:36:20;;;;;;;13.33;11.90;;;;;;;;;;5093486;28;20539;-65
2022/07/23 01:38:47;;;;;;;14.53;13.03;;;;;;;;;;5093567;28;20527;-65
2022/07/23 01:41:16;;;;;;;14.13;12.73;;;;;;;;;;5093173;28;20535;-66
2022/07/23 01:43:43;;;;;;;19.90;12.40;;;;;;;;;;5093185;28;20523;-66
2022/07/23 01:46:10;;;;;;;14.93;11.70;;;;;;;;;;5093394;28;20531;-67
2022/07/23 01:48:37;;;;;;;15.03;12.20;;;;;;;;;;5092994;28;21017;-65
2022/07/23 01:51:05;;;;;;;14.00;12.60;;;;;;;;;;5093368;28;20477;-65
2022/07/23 01:53:32;;;;;;;13.60;11.20;;;;;;;;;;5092926;28;20525;-66
2022/07/23 01:55:59;;;;;;;16.13;11.50;;;;;;;;;;5093291;28;20479;-65
2022/07/23 01:58:28;;;;;;;15.17;11.37;;;;;;;;;;5093360;28;20443;-65
2022/07/23 02:00:56;;;;;;;15.63;12.00;;;;;;;;;;5093304;28;20795;-65
2022/07/23 02:03:23;;;;;;;14.13;12.17;;;;;;;;;;5093214;28;20436;-65
2022/07/23 02:05:50;;;;;;;14.30;11.40;;;;;;;;;;5093307;28;20436;-65
2022/07/23 02:08:18;;;;;;;13.70;11.73;;;;;;;;;;5092833;28;20535;-65
2022/07/23 02:10:45;;;;;;;14.53;12.60;;;;;;;;;;5093198;28;21059;-64
2022/07/23 02:13:13;;;;;;;16.13;13.13;;;;;;;;;;5093131;28;20833;-65
2022/07/23 02:15:41;;;;;;;16.43;13.27;;;;;;;;;;5093438;28;20500;-65
2022/07/23 02:18:09;;;;;;;14.53;12.93;;;;;;;;;;5096657;28;20465;-65
2022/07/23 02:20:38;;;;;;;17.13;13.20;;;;;;;;;;5096939;28;20465;-67
2022/07/23 02:23:06;;;;;;;13.10;11.70;;;;;;;;;;5096553;28;20498;-65
2022/07/23 02:25:33;;;;;;;13.47;12.07;;;;;;;;;;5096663;28;20449;-65
2022/07/23 02:28:00;;;;;;;16.83;13.73;;;;;;;;;;5097258;28;20438;-66
2022/07/23 02:30:28;;;;;;;18.90;13.90;;;;;;;;;;5097272;28;20483;-65
2022/07/23 02:32:57;;;;;;;14.53;13.03;;;;;;;;;;5096419;28;20446;-65
2022/07/23 02:35:24;;;;;;;16.10;13.33;;;;;;;;;;5096377;28;20450;-65
2022/07/23 02:37:51;;;;;;;15.83;14.17;;;;;;;;;;5096623;28;20532;-66
2022/07/23 02:40:18;;;;;;;18.17;14.70;;;;;;;;;;5096661;28;20447;-66
2022/07/23 02:42:46;;;;;;;17.77;13.00;;;;;;;;;;5096492;28;20439;-65
2022/07/23 02:45:13;;;;;;;18.00;14.37;;;;;;;;;;5096904;28;20473;-66
2022/07/23 02:47:40;;;;;;;18.07;13.60;;;;;;;;;;5096050;28;20444;-65
2022/07/23 02:50:09;;;;;;;24.70;14.60;;;;;;;;;;5096354;28;20505;-66
2022/07/23 02:52:36;;;;;;;18.57;12.97;;;;;;;;;;5096002;28;20528;-65
2022/07/23 02:55:04;;;;;;;18.70;12.10;;;;;;;;;;5096689;28;20770;-65
2022/07/23 02:57:31;;;;;;;18.50;13.13;;;;;;;;;;5096470;28;20439;-65
2022/07/23 02:59:58;;;;;;;16.53;14.07;;;;;;;;;;5095929;28;20445;-65
2022/07/23 03:02:25;;;;;;;18.97;13.77;;;;;;;;;;5096087;28;20451;-65
2022/07/23 03:04:52;;;;;;;15.33;13.63;;;;;;;;;;5096143;28;20443;-65
2022/07/23 03:07:21;;;;;;;19.93;13.93;;;;;;;;;;5096605;28;20437;-65
2022/07/23 03:09:48;;;;;;;18.40;14.73;;;;;;;;;;5096250;28;20447;-64
2022/07/23 03:12:16;;;;;;;19.37;14.70;;;;;;;;;;5095897;28;20570;-65
2022/07/23 03:14:43;;;;;;;17.70;14.60;;;;;;;;;;5095926;28;20444;-65
2022/07/23 03:17:10;;;;;;;18.20;13.43;;;;;;;;;;5095817;28;20471;-66
2022/07/23 03:19:38;;;;;;;20.90;14.60;;;;;;;;;;5095910;28;20795;-65
2022/07/23 03:22:05;;;;;;;16.00;12.27;;;;;;;;;;5096063;28;20434;-66
2022/07/23 03:27:19;;;;;;;20.30;15.93;;;;;;;;;;5095312;28;20392;-66
2022/07/23 03:29:46;;;;;;;23.30;14.70;;;;;;;;;;5095584;28;20857;-65
2022/07/23 03:32:13;;;;;;;21.63;14.30;;;;;;;;;;5095424;28;20563;-66
2022/07/23 03:34:41;;;;;;;19.03;13.80;;;;;;;;;;5095439;28;20476;-65
2022/07/23 03:37:08;;;;;;;20.17;14.13;;;;;;;;;;5095497;28;20536;-65
2022/07/23 03:39:36;;;;;;;17.47;15.23;;;;;;;;;;5095408;28;20444;-66
2022/07/23 03:42:04;;;;;;;28.40;17.27;;;;;;;;;;5095103;28;20447;-65
2022/07/23 03:44:31;;;;;;;19.33;16.00;;;;;;;;;;5095001;28;20524;-65
2022/07/23 03:46:58;;;;;;;22.20;17.00;;;;;;;;;;5095004;28;20448;-64
2022/07/23 03:49:26;;;;;;;23.57;16.70;;;;;;;;;;5094874;28;20436;-65
2022/07/23 03:51:53;;;;;;;29.40;19.00;;;;;;;;;;5093950;28;20482;-64
2022/07/23 03:54:20;;;;;;;28.00;18.57;;;;;;;;;;5094808;28;20813;-65
2022/07/23 03:56:49;;;;;;;31.00;17.67;;;;;;;;;;5094962;28;20438;-65
2022/07/23 03:59:16;;;;;;;28.23;17.90;;;;;;;;;;5094623;28;20963;-65
2022/07/23 04:01:43;;;;;;;21.10;15.17;;;;;;;;;;5095396;28;20439;-65
2022/07/23 04:04:10;;;;;;;25.17;16.40;;;;;;;;;;5093976;28;20445;-65
2022/07/23 04:06:38;;;;;;;20.20;15.23;;;;;;;;;;5094583;28;20436;-65
2022/07/23 04:09:05;;;;;;;19.10;14.63;;;;;;;;;;5094505;28;20447;-66
2022/07/23 04:11:32;;;;;;;16.50;14.47;;;;;;;;;;5094713;28;20477;-65
2022/07/23 04:14:01;;;;;;;23.90;17.90;;;;;;;;;;5094468;28;20436;-65
2022/07/23 04:16:28;;;;;;;23.13;16.07;;;;;;;;;;5094566;28;20471;-65
2022/07/23 04:18:55;;;;;;;18.47;14.40;;;;;;;;;;5094343;28;20938;-65
2022/07/23 04:21:23;;;;;;;18.00;15.03;;;;;;;;;;5094255;28;20484;-66
2022/07/23 04:23:50;;;;;;;19.50;13.23;;;;;;;;;;5094709;28;20450;-65
2022/07/23 04:26:17;;;;;;;16.63;13.17;;;;;;;;;;5094237;28;20442;-65
2022/07/23 04:28:44;;;;;;;17.63;14.80;;;;;;;;;;5094437;28;20444;-64
2022/07/23 04:31:13;;;;;;;18.70;13.80;;;;;;;;;;5094706;28;20481;-65
2022/07/23 04:33:40;;;;;;;21.87;14.40;;;;;;;;;;5094145;28;20445;-65
2022/07/23 04:36:08;;;;;;;17.30;14.30;;;;;;;;;;5093964;28;20444;-65
2022/07/23 04:38:35;;;;;;;18.93;14.37;;;;;;;;;;5094200;28;20518;-65
2022/07/23 04:41:02;;;;;;;15.90;13.50;;;;;;;;;;5093999;28;20448;-65
2022/07/23 04:43:29;;;;;;;17.07;14.10;;;;;;;;;;5093975;28;20443;-64
2022/07/23 04:45:56;;;;;;;17.77;13.63;;;;;;;;;;5093130;28;21082;-64
2022/07/23 04:48:25;;;;;;;17.87;14.93;;;;;;;;;;5093159;28;20544;-65
2022/07/23 04:50:52;;;;;;;19.73;13.70;;;;;;;;;;5093505;28;20843;-65
2022/07/23 04:53:19;;;;;;;15.97;14.07;;;;;;;;;;5094143;28;20444;-64
2022/07/23 04:55:47;;;;;;;18.33;16.27;;;;;;;;;;5093184;28;20451;-65
2022/07/23 04:58:14;;;;;;;16.20;14.60;;;;;;;;;;5094014;28;20447;-65
2022/07/23 05:00:41;;;;;;;18.10;15.03;;;;;;;;;;5093889;28;20448;-65
2022/07/23 05:03:08;;;;;;;16.37;14.60;;;;;;;;;;5094257;28;20441;-64
2022/07/23 05:05:37;;;;;;;18.03;14.20;;;;;;;;;;5093520;28;20440;-65
2022/07/23 05:08:04;;;;;;;15.57;13.30;;;;;;;;;;5093945;28;20444;-66
2022/07/23 05:10:32;;;;;;;19.10;15.83;;;;;;;;;;5093909;28;20445;-65
2022/07/23 05:12:59;;;;;;;17.13;14.70;;;;;;;;;;5093474;28;20527;-65
2022/07/23 05:15:26;;;;;;;21.70;15.40;;;;;;;;;;5092726;28;20475;-66
2022/07/23 05:17:53;;;;;;;17.50;15.20;;;;;;;;;;5094373;28;20449;-65
2022/07/23 05:20:21;;;;;;;14.30;12.80;;;;;;;;;;5093145;28;20447;-65
2022/07/23 05:22:50;;;;;;;16.13;13.00;;;;;;;;;;5093416;28;20517;-65
2022/07/23 05:25:17;;;;;;;15.23;12.70;;;;;;;;;;5093720;28;20513;-65
2022/07/23 05:27:44;;;;;;;15.70;12.57;;;;;;;;;;5093387;28;20526;-65
2022/07/23 05:30:12;;;;;;;17.10;12.70;;;;;;;;;;5093891;28;20494;-65
2022/07/23 05:32:39;;;;;;;22.53;15.03;;;;;;;;;;5093218;28;20554;-65
2022/07/23 05:35:07;;;;;;;14.93;13.37;;;;;;;;;;5092674;28;20438;-64
2022/07/23 05:37:34;;;;;;;16.80;12.80;;;;;;;;;;5093544;28;20468;-65
2022/07/23 05:40:05;;;;;;;15.50;12.30;;;;;;;;;;5093668;28;20450;-65
2022/07/23 05:42:33;;;;;;;14.77;12.47;;;;;;;;;;5094212;28;20961;-65
2022/07/23 05:45:00;;;;;;;15.73;12.23;;;;;;;;;;5093027;28;20475;-65
2022/07/23 05:47:27;;;;;;;16.30;13.70;;;;;;;;;;5093499;28;20526;-65
2022/07/23 05:49:54;;;;;;;16.37;12.50;;;;;;;;;;5094584;28;20953;-66
2022/07/23 05:52:22;;;;;;;14.67;13.07;;;;;;;;;;5097308;28;20480;-65
2022/07/23 05:54:49;;;;;;;18.33;12.63;;;;;;;;;;5097249;28;20534;-67
2022/07/23 05:57:17;;;;;;;14.20;12.73;;;;;;;;;;5096672;28;20539;-65
2022/07/23 05:59:45;;;;;;;15.40;12.70;;;;;;;;;;5096938;28;20432;-65
2022/07/23 06:02:12;;;;;;;15.60;12.53;;;;;;;;;;5097247;28;20456;-65
2022/07/23 06:04:39;;;;;;;13.87;11.80;;;;;;;;;;5097055;28;20436;-64
2022/07/23 06:07:06;;;;;;;13.13;11.80;;;;;;;;;;5096820;28;20534;-65
2022/07/23 06:09:33;;;;;;;19.60;12.00;;;;;;;;;;5097593;28;20466;-65
2022/07/23 06:12:01;;;;;;;17.60;12.90;;;;;;;;;;5097019;28;20563;-65
2022/07/23 06:14:29;;;;;;;12.83;10.87;;;;;;;;;;5097153;28;20534;-64
2022/07/23 06:16:56;;;;;;;15.87;12.80;;;;;;;;;;5096872;28;20553;-64
2022/07/23 06:19:24;;;;;;;13.33;11.93;;;;;;;;;;5097217;28;20442;-65
2022/07/23 06:21:51;;;;;;;16.90;11.00;;;;;;;;;;5096917;28;20537;-66
2022/07/23 06:24:18;;;;;;;15.87;11.87;;;;;;;;;;5096853;28;21001;-65
2022/07/23 06:26:45;;;;;;;18.73;12.50;;;;;;;;;;5096533;28;20527;-64
2022/07/23 06:29:12;;;;;;;17.17;12.70;;;;;;;;;;5096953;28;20441;-64
2022/07/23 06:31:41;;;;;;;13.93;11.80;;;;;;;;;;5096674;28;20486;-64
2022/07/23 06:34:08;;;;;;;15.33;12.17;;;;;;;;;;5096962;28;20526;-65
2022/07/23 06:36:35;;;;;;;12.30;10.90;;;;;;;;;;5097003;28;20874;-65
2022/07/23 06:39:02;;;;;;;11.67;10.57;;;;;;;;;;5096662;28;20441;-64
2022/07/23 06:41:30;;;;;;;12.27;10.93;;;;;;;;;;5096585;28;20448;-65
2022/07/23 06:43:57;;;;;;;11.50;9.90;;;;;;;;;;5096294;28;20444;-64
2022/07/23 06:46:25;;;;;;;12.80;10.20;;;;;;;;;;5095493;28;20468;-65
2022/07/23 06:48:53;;;;;;;15.33;10.90;;;;;;;;;;5096161;28;20887;-65
2022/07/23 06:51:21;;;;;;;11.20;10.10;;;;;;;;;;5096664;28;20477;-65
2022/07/23 06:53:48;;;;;;;9.63;8.63;;;;;;;;;;5096342;28;20490;-65
2022/07/23 06:56:15;;;;;;;10.57;8.97;;;;;;;;;;5096155;28;20480;-65
2022/07/23 06:58:42;;;;;;;13.63;9.80;;;;;;;;;;5096944;28;20444;-65
2022/07/23 07:01:09;;;;;;;9.67;8.40;;;;;;;;;;5095432;28;20865;-65
2022/07/23 07:03:37;;;;;;;11.10;10.03;;;;;;;;;;5095918;28;20527;-65
2022/07/23 07:06:05;;;;;;;10.37;9.00;;;;;;;;;;5096111;28;20478;-65
2022/07/23 07:08:33;;;;;;;12.20;8.50;;;;;;;;;;5096047;28;20936;-65
2022/07/23 07:11:00;;;;;;;15.63;8.63;;;;;;;;;;5095972;28;20523;-65
2022/07/23 07:13:27;;;;;;;11.77;9.50;;;;;;;;;;5095906;28;20483;-66
2022/07/23 07:15:54;;;;;;;11.53;8.60;;;;;;;;;;5096323;28;20791;-65
2022/07/23 07:18:22;;;;;;;10.90;8.53;;;;;;;;;;5095544;28;21005;-65
2022/07/23 07:20:49;;;;;;;8.43;5.93;;;;;;;;;;5095460;28;20477;-67
2022/07/23 07:23:17;;;;;;;9.30;6.87;;;;;;;;;;5095740;28;20533;-64
2022/07/23 07:25:44;;;;;;;7.40;6.63;;;;;;;;;;5095367;28;20992;-65
2022/07/23 07:28:12;;;;;;;7.83;7.07;;;;;;;;;;5095241;28;20483;-65
2022/07/23 07:30:39;;;;;;;9.43;6.90;;;;;;;;;;5096317;28;20519;-65
2022/07/23 07:33:06;;;;;;;7.43;6.60;;;;;;;;;;5094962;28;21058;-65
2022/07/23 07:35:33;;;;;;;7.63;6.93;;;;;;;;;;5095215;28;20523;-65
2022/07/23 07:38:01;;;;;;;8.30;7.37;;;;;;;;;;5095663;28;20530;-65
2022/07/23 07:40:29;;;;;;;7.40;6.70;;;;;;;;;;5095706;28;20435;-65
2022/07/23 07:42:57;;;;;;;10.40;7.03;;;;;;;;;;5095033;28;20938;-65
2022/07/23 07:45:25;;;;;;;10.53;7.27;;;;;;;;;;5095228;28;20443;-64
2022/07/23 07:47:52;;;;;;;7.87;6.97;;;;;;;;;;5094908;28;20448;-66
2022/07/23 07:50:20;;;;;;;9.40;6.43;;;;;;;;;;5094982;28;20439;-64
2022/07/23 07:52:47;;;;;;;7.30;6.50;;;;;;;;;;5095047;28;20480;-65
2022/07/23 07:55:14;;;;;;;10.50;7.13;;;;;;;;;;5094840;28;20460;-65
2022/07/23 07:57:43;;;;;;;9.50;6.80;;;;;;;;;;5095180;28;20806;-64
2022/07/23 08:00:11;;;;;;;8.77;6.23;;;;;;;;;;5095089;28;20524;-64
2022/07/23 08:02:42;;;;;;;7.33;6.33;;;;;;;;;;5095260;28;20449;-65
2022/07/23 08:05:09;;;;;;;7.57;5.83;;;;;;;;;;5095033;28;20435;-65
2022/07/23 08:07:38;;;;;;;9.20;5.97;;;;;;;;;;5094111;28;20448;-65
2022/07/23 08:10:06;;;;;;;6.73;6.03;;;;;;;;;;5094576;28;20446;-64
2022/07/23 08:12:39;;;;;;;6.87;6.20;;;;;;;;;;5094412;28;20563;-64
2022/07/23 08:15:09;;;;;;;9.07;5.30;;;;;;;;;;5095315;28;20482;-65
2022/07/23 08:17:36;;;;;;;7.70;6.10;;;;;;;;;;5094982;28;20468;-65
2022/07/23 08:20:03;;;;;;;6.67;5.90;;;;;;;;;;5094564;28;20451;-65
2022/07/23 08:22:43;;;;;;;6.80;5.37;;;;;;;;;;5094277;28;20460;-64
2022/07/23 08:25:10;;;;;;;9.30;6.00;;;;;;;;;;5094844;28;20546;-65
2022/07/23 08:27:37;;;;;;;7.60;5.40;;;;;;;;;;5093962;28;20450;-65
2022/07/23 08:30:05;;;;;;;6.50;5.87;;;;;;;;;;5094531;28;20555;-65
2022/07/23 08:32:33;;;;;;;7.53;4.80;;;;;;;;;;5094201;28;20561;-65
2022/07/23 08:35:01;;;;;;;5.10;4.60;;;;;;;;;;5094161;28;20872;-65
2022/07/23 08:37:28;;;;;;;5.17;4.67;;;;;;;;;;5093938;28;20458;-65
2022/07/23 08:39:56;;;;;;;7.40;5.23;;;;;;;;;;5094352;28;20473;-64
2022/07/23 08:42:23;;;;;;;6.13;4.30;;;;;;;;;;5094179;28;20850;-65
2022/07/23 08:44:50;;;;;;;5.80;5.30;;;;;;;;;;5094153;28;20475;-65
2022/07/23 08:47:17;;;;;;;7.00;6.30;;;;;;;;;;5093657;28;20849;-64
2022/07/23 08:49:47;;;;;;;8.73;5.77;;;;;;;;;;5094076;28;20447;-64
2022/07/23 08:52:15;;;;;;;6.37;5.67;;;;;;;;;;5094347;28;20467;-64
2022/07/23 08:54:42;;;;;;;5.33;4.80;;;;;;;;;;5093944;28;20461;-64
2022/07/23 08:57:10;;;;;;;6.63;5.10;;;;;;;;;;5093610;28;20529;-65
2022/07/23 08:59:37;;;;;;;5.50;4.50;;;;;;;;;;5093803;28;20476;-65
2022/07/23 09:02:04;;;;;;;5.80;4.70;;;;;;;;;;5094161;28;21006;-64
2022/07/23 09:04:32;;;;;;;4.97;4.47;;;;;;;;;;5093809;28;20441;-65
2022/07/23 09:07:03;;;;;;;5.63;5.00;;;;;;;;;;5093536;28;20787;-64
2022/07/23 09:09:31;;;;;;;4.57;4.10;;;;;;;;;;5093402;28;20537;-65
2022/07/23 09:12:04;;;;;;;5.60;4.10;;;;;;;;;;5093702;28;20446;-64
2022/07/23 09:14:42;;;;;;;11.47;4.00;;;;;;;;;;5093684;28;20527;-64
2022/07/23 09:17:10;;;;;;;4.43;4.03;;;;;;;;;;5093940;28;21022;-64
2022/07/23 09:19:37;;;;;;;5.70;4.20;;;;;;;;;;5093852;28;20453;-65
2022/07/23 09:22:19;;;;;;;5.97;3.20;;;;;;;;;;5093861;28;20445;-66
2022/07/23 09:25:01;;;;;;;5.83;3.77;;;;;;;;;;5092866;28;20445;-65
2022/07/23 09:27:46;;;;;;;4.40;3.70;;;;;;;;;;5094291;28;20436;-65
2022/07/23 09:30:13;;;;;;;6.00;4.50;;;;;;;;;;5094260;28;20435;-65
2022/07/23 09:32:40;;;;;;;6.47;3.60;;;;;;;;;;5093536;28;20482;-65
2022/07/23 09:35:08;;;;;;;5.40;4.00;;;;;;;;;;5093177;28;20441;-65
2022/07/23 09:37:37;;;;;;;5.30;3.40;;;;;;;;;;5093489;28;20536;-65
2022/07/23 09:40:08;;;;;;;3.50;3.20;;;;;;;;;;5093147;28;21022;-65
2022/07/23 09:42:35;;;;;;;5.80;3.80;;;;;;;;;;5093495;28;20523;-64
2022/07/23 09:45:03;;;;;;;5.90;3.57;;;;;;;;;;5093411;28;20533;-64
2022/07/23 09:47:31;;;;;;;5.40;3.40;;;;;;;;;;5093341;28;20440;-65
2022/07/23 09:49:59;;;;;;;5.03;4.00;;;;;;;;;;5093394;28;20532;-64
2022/07/23 09:52:28;;;;;;;3.87;3.47;;;;;;;;;;5093403;28;20993;-65
2022/07/23 09:55:00;;;;;;;4.67;3.77;;;;;;;;;;5092992;28;20484;-66
2022/07/23 09:57:28;;;;;;;5.60;4.03;;;;;;;;;;5094118;28;20887;-65
2022/07/23 09:59:58;;;;;;;6.83;3.50;;;;;;;;;;5093021;28;20927;-65
2022/07/23 10:02:26;;;;;;;3.90;3.60;;;;;;;;;;5093363;28;20434;-65
2022/07/23 10:04:54;;;;;;;3.40;3.20;;;;;;;;;;5092938;28;20992;-64
2022/07/23 10:07:23;;;;;;;4.60;3.63;;;;;;;;;;5093357;28;20442;-64
2022/07/23 10:09:52;;;;;;;4.70;3.77;;;;;;;;;;5093166;28;20454;-65
2022/07/23 10:12:42;;;;;;;5.97;3.73;;;;;;;;;;5093385;28;20450;-65
2022/07/23 10:15:09;;;;;;;3.70;3.23;;;;;;;;;;5093209;28;20481;-64
2022/07/23 10:17:37;;;;;;;3.00;2.80;;;;;;;;;;5093420;28;20545;-65
2022/07/23 10:20:05;;;;;;;3.87;3.50;;;;;;;;;;5093043;28;20449;-66
2022/07/23 10:22:34;;;;;;;5.10;3.00;;;;;;;;;;5093060;28;20441;-65
2022/07/23 10:25:10;;;;;;;3.13;2.57;;;;;;;;;;5093078;28;20563;-65
2022/07/23 10:28:04;;;;;;;4.73;3.00;;;;;;;;;;5093154;28;20431;-65
2022/07/23 10:30:33;;;;;;;4.77;3.20;;;;;;;;;;5092768;28;21003;-65
2022/07/23 10:33:11;;;;;;;5.57;2.70;;;;;;;;;;5093550;28;20484;-65
2022/07/23 10:35:41;;;;;;;2.90;2.70;;;;;;;;;;5092714;28;20942;-65
2022/07/23 10:38:12;;;;;;;3.30;2.70;;;;;;;;;;5095382;28;20464;-65
2022/07/23 10:40:51;;;;;;;3.50;2.63;;;;;;;;;;5096652;28;20437;-65
2022/07/23 10:43:19;;;;;;;2.63;2.43;;;;;;;;;;5096898;28;20800;-65
2022/07/23 10:45:47;;;;;;;4.60;2.20;;;;;;;;;;5096502;28;20453;-65
2022/07/23 10:48:16;;;;;;;2.67;2.03;;;;;;;;;;5096190;28;20541;-65
2022/07/23 10:50:43;;;;;;;6.60;3.10;;;;;;;;;;5096329;28;20475;-64
2022/07/23 10:53:13;;;;;;;6.30;2.13;;;;;;;;;;5096202;28;20486;-64
2022/07/23 10:55:41;;;;;;;2.70;2.30;;;;;;;;;;5095740;28;20457;-67
2022/07/23 10:58:09;;;;;;;10.13;2.53;;;;;;;;;;5095951;28;20453;-64
2022/07/23 11:00:38;;;;;;;4.30;2.67;;;;;;;;;;5095771;28;20450;-64
2022/07/23 11:03:07;;;;;;;3.10;2.90;;;;;;;;;;5096295;28;20544;-63
2022/07/23 11:05:42;;;;;;;4.53;3.07;;;;;;;;;;5096589;28;20943;-64
2022/07/23 11:08:16;;;;;;;4.27;2.23;;;;;;;;;;5095636;28;20453;-65
2022/07/23 11:10:45;;;;;;;1.93;1.83;;;;;;;;;;5095364;28;20473;-65
2022/07/23 11:13:28;;;;;;;2.60;2.37;;;;;;;;;;5095725;28;20558;-63
2022/07/23 11:16:16;;;;;;;3.93;2.90;;;;;;;;;;5095188;28;20550;-63
2022/07/23 11:18:57;;;;;;;2.97;2.07;;;;;;;;;;5090635;28;20508;-63
2022/07/23 11:21:40;;;;;;;3.50;2.00;;;;;;;;;;5095617;28;20439;-64
2022/07/23 11:24:08;;;;;;;4.60;4.00;;;;;;;;;;5083107;28;20549;-64
2022/07/23 11:26:46;;;;;;;2.67;2.47;;;;;;;;;;5095399;28;20522;-64
2022/07/23 11:29:40;;;;;;;3.90;2.80;;;;;;;;;;5095170;28;21025;-64
2022/07/23 11:32:08;;;;;;;2.90;2.70;;;;;;;;;;5059639;28;20447;-64
2022/07/23 11:34:37;;;;;;;3.90;2.20;;;;;;;;;;5095152;28;20489;-64
2022/07/23 11:37:05;;;;;;;4.83;2.53;;;;;;;;;;5095488;28;20474;-64
2022/07/23 11:39:33;;;;;;;2.80;2.50;;;;;;;;;;5095083;28;21011;-64
2022/07/23 11:42:01;;;;;;;2.63;2.10;;;;;;;;;;5095127;28;20538;-64
2022/07/23 11:44:29;;;;;;;2.97;2.40;;;;;;;;;;5095551;28;20447;-64
2022/07/23 11:46:57;;;;;;;5.37;2.10;;;;;;;;;;5095296;28;20851;-64
2022/07/23 11:49:24;;;;;;;3.77;2.33;;;;;;;;;;5094587;28;20450;-64
2022/07/23 11:52:06;;;;;;;1.93;1.80;;;;;;;;;;5095193;28;20482;-64
2022/07/23 11:54:33;;;;;;;4.77;2.10;;;;;;;;;;5095086;28;20483;-64
2022/07/23 11:57:00;;;;;;;3.97;2.10;;;;;;;;;;5095046;28;20437;-64
2022/07/23 11:59:30;;;;;;;2.80;2.03;;;;;;;;;;5095318;28;20467;-64
2022/07/23 12:01:58;;;;;;;4.20;2.00;;;;;;;;;;5095138;28;20444;-63
2022/07/23 12:04:26;;;;;;;2.10;1.90;;;;;;;;;;5095661;28;20782;-64
2022/07/23 12:06:53;;;;;;;2.80;2.50;;;;;;;;;;5094522;28;20461;-63
2022/07/23 12:09:21;;;;;;;2.20;2.07;;;;;;;;;;5095090;28;20467;-63
2022/07/23 12:11:58;;;;;;;1.93;1.83;;;;;;;;;;5094906;28;20445;-63
2022/07/23 12:14:26;;;;;;;2.60;2.40;;;;;;;;;;5094720;28;20477;-64
2022/07/23 12:17:08;;;;;;;2.87;2.30;;;;;;;;;;5094299;28;20474;-63
2022/07/23 12:19:35;;;;;;;4.33;2.20;;;;;;;;;;5094844;28;20879;-64
2022/07/23 12:22:02;;;;;;;2.50;2.00;;;;;;;;;;5094604;28;20440;-64
2022/07/23 12:24:31;;;;;;;2.80;2.50;;;;;;;;;;5094677;28;20447;-64
2022/07/23 12:27:11;;;;;;;3.17;2.23;;;;;;;;;;5094451;28;20523;-64
2022/07/23 12:29:38;;;;;;;3.47;2.20;;;;;;;;;;5094466;28;20806;-64
2022/07/23 12:32:18;;;;;;;2.43;2.17;;;;;;;;;;5094073;28;20470;-64
2022/07/23 12:34:45;;;;;;;2.60;2.23;;;;;;;;;;5092868;28;20483;-64
2022/07/23 12:37:26;;;;;;;2.40;2.20;;;;;;;;;;5093250;28;20451;-64
2022/07/23 12:39:54;;;;;;;2.40;2.20;;;;;;;;;;5094226;28;20519;-64
2022/07/23 12:42:24;;;;;;;2.33;2.13;;;;;;;;;;5093381;28;20442;-64
2022/07/23 12:45:07;;;;;;;4.10;2.30;;;;;;;;;;5094328;28;20452;-64
2022/07/23 12:47:49;;;;;;;2.60;2.40;;;;;;;;;;5093983;28;20438;-64
2022/07/23 12:50:32;;;;;;;3.30;2.00;;;;;;;;;;5094063;28;20785;-64
2022/07/23 12:53:03;;;;;;;3.03;2.17;;;;;;;;;;5094755;28;20850;-63
2022/07/23 12:55:32;;;;;;;3.53;2.03;;;;;;;;;;5094107;28;20458;-64
2022/07/23 12:58:05;;;;;;;2.87;2.10;;;;;;;;;;5093717;28;20444;-64
2022/07/23 13:00:32;;;;;;;2.10;1.90;;;;;;;;;;5092995;28;20430;-64
2022/07/23 13:02:59;;;;;;;2.63;1.93;;;;;;;;;;5093110;28;20440;-64
2022/07/23 13:05:27;;;;;;;2.30;2.10;;;;;;;;;;5093971;28;20870;-64
2022/07/23 13:07:54;;;;;;;4.40;2.50;;;;;;;;;;5093444;28;20484;-63
2022/07/23 13:10:21;;;;;;;5.83;2.23;;;;;;;;;;5093806;28;20872;-64
2022/07/23 13:12:50;;;;;;;6.57;4.10;;;;;;;;;;5093741;28;20536;-64
2022/07/23 13:15:17;;;;;;;2.60;2.40;;;;;;;;;;5094174;28;20951;-64
2022/07/23 13:17:45;;;;;;;3.20;2.53;;;;;;;;;;5093969;28;20473;-64
2022/07/23 13:20:13;;;;;;;7.90;2.63;;;;;;;;;;5093706;28;20494;-64
2022/07/23 13:22:40;;;;;;;4.00;2.40;;;;;;;;;;5093366;28;20445;-64
2022/07/23 13:25:08;;;;;;;2.90;2.20;;;;;;;;;;5093203;28;20460;-64
2022/07/23 13:27:35;;;;;;;3.40;2.13;;;;;;;;;;5093761;28;20492;-63
2022/07/23 13:30:04;;;;;;;4.00;2.30;;;;;;;;;;5094017;28;20465;-64
2022/07/23 13:32:31;;;;;;;3.43;2.70;;;;;;;;;;5093441;28;20525;-64
2022/07/23 13:34:58;;;;;;;3.10;2.33;;;;;;;;;;5093356;28;20499;-64
2022/07/23 13:37:26;;;;;;;2.90;2.33;;;;;;;;;;5093637;28;20880;-64
2022/07/23 13:39:53;;;;;;;4.63;2.63;;;;;;;;;;5093770;28;20445;-63
2022/07/23 13:42:20;;;;;;;4.63;2.20;;;;;;;;;;5093163;28;20443;-64
2022/07/23 13:44:47;;;;;;;3.33;2.70;;;;;;;;;;5093268;28;20550;-64
2022/07/23 13:47:16;;;;;;;3.13;2.30;;;;;;;;;;5093281;28;20443;-63
2022/07/23 13:49:43;;;;;;;2.50;2.30;;;;;;;;;;5093286;28;20450;-63
2022/07/23 13:52:10;;;;;;;2.53;2.33;;;;;;;;;;5093161;28;20441;-63
2022/07/23 13:54:38;;;;;;;3.83;2.67;;;;;;;;;;5093191;28;21011;-64
2022/07/23 13:57:05;;;;;;;2.77;2.57;;;;;;;;;;5093188;28;20443;-64
2022/07/23 13:59:32;;;;;;;2.53;2.30;;;;;;;;;;5092965;28;21007;-64
2022/07/23 14:02:00;;;;;;;2.70;2.50;;;;;;;;;;5093144;28;20446;-64
2022/07/23 14:04:29;;;;;;;8.30;2.40;;;;;;;;;;5092668;28;20534;-64
2022/07/23 14:06:56;;;;;;;2.57;2.40;;;;;;;;;;5093170;28;20516;-64
2022/07/23 14:09:23;;;;;;;3.80;2.93;;;;;;;;;;5092824;28;20539;-64
2022/07/23 14:11:51;;;;;;;3.20;2.90;;;;;;;;;;5095227;28;20928;-64
2022/07/23 14:14:18;;;;;;;6.03;2.90;;;;;;;;;;5096935;28;20820;-64
2022/07/23 14:16:46;;;;;;;2.80;2.60;;;;;;;;;;5096509;28;20464;-64
2022/07/23 14:19:13;;;;;;;3.00;2.70;;;;;;;;;;5096678;28;20448;-63
2022/07/23 14:21:42;;;;;;;2.70;2.40;;;;;;;;;;5097146;28;20420;-63
2022/07/23 14:24:09;;;;;;;3.83;2.60;;;;;;;;;;5082002;28;20412;-63
2022/07/23 14:26:37;;;;;;;5.53;2.67;;;;;;;;;;5075662;28;20471;-64
2022/07/23 14:29:04;;;;;;;2.93;2.73;;;;;;;;;;5076010;28;20762;-63
2022/07/23 14:31:31;;;;;;;3.97;3.23;;;;;;;;;;5075622;28;20964;-63
2022/07/23 14:33:58;;;;;;;5.80;2.90;;;;;;;;;;5078019;28;20488;-63
2022/07/23 14:36:26;;;;;;;4.73;2.70;;;;;;;;;;5075772;28;20447;-63
2022/07/23 14:38:54;;;;;;;5.50;2.83;;;;;;;;;;5076250;28;20448;-66
2022/07/23 14:41:22;;;;;;;5.37;3.07;;;;;;;;;;5076178;28;20438;-63